Hunt Field Lander US
ICAO: KLND
IATA: LND
Category: Medium
Scheduled Services: No

Elevation: 5586 ft
TransAlt. 18000 ft.

Airport Communications:
ASOS:118.15
CTAF/UNICOM:122.8

KLND Zoom In..

Runways:

(A) RW 03 length 5007 ft width 100 ft
---- / hdg 36

(B) RW 21 length 5007 ft width 100 ft
---- / hdg 216

Location; KLND
Day. 26 / Time. 13.53 Zulu
* Altimeter: 29.90
* Temperature: 13° c. 55.4°f.
* Wind from: 170° Speed 03 kn.
Dewpoint: 08° c.
Visibility: 10 Statute Miles.
Clouds: Clear (automated report).

KLND 261353Z AUTO 17003KT 10SM CLR 13/08 A2990 RMK AO2 SLP065 T01330083


Wind From 170°
Speed 03 kn.

 
 
jpsmedia.com for Web Design SOUNDCLOUD worldairports.se 2018   terms of use